Moraine, Ohio
Current Conditions -  °F | °C
As of 2:53 PM on Thursday 30 Oct 2014 (Local Time) from KMGY Reporting Station
Clear Clear  
Wind Chill: 51°   Ceiling: Unl
Heat Index: 51°   Visibility: 10mi
Dew Point: 34°   Wind: 3mph
Humidity: 52%   Direction: NA
Pressure: 30.09"   Gusts: NA
Location:  39.6994°N, 84.2173°W
Report Text: KMGY 301853Z AUTO VRB03KT 10SM CLR 11/01 A3009 RMK AO2 SLP191 T01060011
Loading
Personal Weather Stations






























Interactive Weather Map
Tropical Storm Tracking
New forecast layout! Learn more

10-Day Weather Forecast

Advertisements
Track Severe Weather on mobile